Time;durP1;ratioP1;P1;durP2;ratioP2;P2;SDS_P1;SDS_P2;PMS_P1;PMS_P2;Temp;Humidity;BMP_temperature;BMP_pressure;BME280_temperature;BME280_humidity;BME280_pressure;Samples;Min_cycle;Max_cycle;Signal;HPM_P1;HPM_P2
2023/08/19 00:00:59;;;;;;;6.20;5.60;;;27.20;64.20;;;;;;5012261;28;20335;-72
2023/08/19 00:03:26;;;;;;;5.83;5.33;;;27.20;64.30;;;;;;5012306;28;20946;-72
2023/08/19 00:05:52;;;;;;;5.83;5.33;;;27.20;64.20;;;;;;5012260;28;20172;-73
2023/08/19 00:08:17;;;;;;;5.87;5.40;;;27.20;64.20;;;;;;5010968;28;20824;-73
2023/08/19 00:10:43;;;;;;;6.10;5.50;;;27.20;64.20;;;;;;5012216;28;20192;-73
2023/08/19 00:13:09;;;;;;;6.40;5.90;;;27.20;64.20;;;;;;5012220;28;20234;-73
2023/08/19 00:15:35;;;;;;;5.90;5.40;;;27.10;64.20;;;;;;5012052;28;20494;-72
2023/08/19 00:18:01;;;;;;;6.20;5.63;;;27.10;64.20;;;;;;5010906;28;20176;-72
2023/08/19 00:20:32;;;;;;;6.10;5.50;;;27.20;64.20;;;;;;5012077;28;20184;-73
2023/08/19 00:22:58;;;;;;;5.67;5.17;;;27.20;64.20;;;;;;5012096;28;20411;-72
2023/08/19 00:25:24;;;;;;;5.20;4.80;;;27.10;64.20;;;;;;5012032;28;20411;-72
2023/08/19 00:27:54;;;;;;;5.33;4.83;;;27.20;64.20;;;;;;5012010;28;20184;-72
2023/08/19 00:30:20;;;;;;;5.37;4.87;;;27.20;64.20;;;;;;5011933;28;20925;-73
2023/08/19 00:32:46;;;;;;;5.20;4.80;;;27.10;64.20;;;;;;5011988;28;20958;-72
2023/08/19 00:35:13;;;;;;;5.93;5.43;;;27.10;64.20;;;;;;5011911;28;20199;-73
2023/08/19 00:37:39;;;;;;;5.80;5.30;;;27.10;64.20;;;;;;5010669;28;20412;-73
2023/08/19 00:40:05;;;;;;;6.07;5.57;;;27.10;65.00;;;;;;5011830;28;20493;-73
2023/08/19 00:42:32;;;;;;;5.00;4.60;;;27.10;64.20;;;;;;5011943;28;20176;-73
2023/08/19 00:44:57;;;;;;;5.43;5.00;;;27.10;64.20;;;;;;5010656;28;20411;-73
2023/08/19 00:47:26;;;;;;;5.87;5.37;;;27.10;64.20;;;;;;5010654;28;20419;-71
2023/08/19 00:49:52;;;;;;;5.20;4.80;;;27.20;64.30;;;;;;5011825;28;20232;-73
2023/08/19 00:52:18;;;;;;;5.03;4.60;;;27.10;64.20;;;;;;5011837;28;20431;-72
2023/08/19 00:54:45;;;;;;;5.80;5.20;;;27.10;64.20;;;;;;5012789;28;20203;-72
2023/08/19 00:57:12;;;;;;;5.63;5.13;;;27.10;64.20;;;;;;5015590;28;20439;-73
2023/08/19 00:59:38;;;;;;;6.40;5.80;;;27.10;64.20;;;;;;5015455;28;20648;-72
2023/08/19 01:02:04;;;;;;;5.60;5.10;;;27.10;64.20;;;;;;5015412;28;20423;-72
2023/08/19 01:04:29;;;;;;;5.37;4.97;;;27.10;64.20;;;;;;5015454;28;20820;-73
2023/08/19 01:07:47;;;;;;;6.50;5.90;;;27.10;64.20;;;;;;5014349;28;20522;-73
2023/08/19 01:10:16;;;;;;;5.17;4.67;;;27.10;64.10;;;;;;5006477;28;20550;-73
2023/08/19 01:12:48;;;;;;;6.20;5.70;;;27.10;64.20;;;;;;5015237;28;20414;-73
2023/08/19 01:15:27;;;;;;;5.57;5.07;;;27.10;64.20;;;;;;5014114;28;20458;-72
2023/08/19 01:17:55;;;;;;;5.50;5.10;;;27.10;64.20;;;;;;5015263;28;20396;-72
2023/08/19 01:20:23;;;;;;;5.73;5.23;;;27.10;64.20;;;;;;5015031;28;20514;-72
2023/08/19 01:23:13;;;;;;;5.33;4.83;;;27.10;64.20;;;;;;5015097;28;20403;-72
2023/08/19 01:25:41;;;;;;;5.47;4.97;;;27.10;64.20;;;;;;5013779;28;20439;-72
2023/08/19 01:28:07;;;;;;;5.43;5.00;;;27.10;64.20;;;;;;5015311;28;20828;-71
2023/08/19 01:30:33;;;;;;;5.50;5.00;;;27.10;64.20;;;;;;5014861;28;20431;-72
2023/08/19 01:33:02;;;;;;;5.60;5.10;;;27.10;64.30;;;;;;5014967;28;20525;-72
2023/08/19 01:35:31;;;;;;;5.20;4.70;;;27.10;64.20;;;;;;5014794;28;20497;-72
2023/08/19 01:38:20;;;;;;;5.70;5.20;;;27.10;64.20;;;;;;5013590;28;20502;-72
2023/08/19 01:40:45;;;;;;;4.97;4.57;;;27.10;64.20;;;;;;5014926;28;20442;-72
2023/08/19 01:43:11;;;;;;;5.10;4.70;;;27.10;64.20;;;;;;5014705;28;20896;-72
2023/08/19 01:45:38;;;;;;;4.60;4.20;;;27.10;64.20;;;;;;5014922;28;20313;-73
2023/08/19 01:48:04;;;;;;;5.50;5.10;;;27.10;65.10;;;;;;5014606;28;20200;-72
2023/08/19 01:50:30;;;;;;;5.23;4.70;;;27.10;64.20;;;;;;5014564;28;20936;-72
2023/08/19 01:52:55;;;;;;;5.77;5.27;;;27.10;64.20;;;;;;5014528;28;20176;-72
2023/08/19 01:55:22;;;;;;;4.93;4.53;;;27.10;64.20;;;;;;5014352;28;20211;-72
2023/08/19 01:57:47;;;;;;;4.80;4.40;;;27.10;64.20;;;;;;5014437;28;20570;-73
2023/08/19 02:00:13;;;;;;;5.50;5.00;;;27.10;64.20;;;;;;5014176;28;20446;-73
2023/08/19 02:02:39;;;;;;;6.73;5.07;;;27.10;64.20;;;;;;5014665;28;20604;-72
2023/08/19 02:05:05;;;;;;;5.77;5.27;;;27.10;64.20;;;;;;5014085;28;20420;-73
2023/08/19 02:07:31;;;;;;;5.40;5.00;;;27.10;64.20;;;;;;5013902;28;20207;-72
2023/08/19 02:09:56;;;;;;;4.73;4.33;;;27.10;64.20;;;;;;5014084;28;20467;-72
2023/08/19 02:12:22;;;;;;;5.80;5.30;;;27.10;65.00;;;;;;5014164;28;20255;-72
2023/08/19 02:14:47;;;;;;;5.60;4.90;;;27.10;64.20;;;;;;5014046;28;20227;-72
2023/08/19 02:17:13;;;;;;;5.33;4.93;;;27.10;64.20;;;;;;5014026;28;20642;-72
2023/08/19 02:19:38;;;;;;;4.80;4.40;;;27.10;64.20;;;;;;5013942;28;20571;-72
2023/08/19 02:22:04;;;;;;;5.20;4.80;;;27.10;64.10;;;;;;5013926;28;20169;-72
2023/08/19 02:24:30;;;;;;;5.57;5.17;;;27.10;64.10;;;;;;5013928;28;20203;-72
2023/08/19 02:26:55;;;;;;;4.80;4.40;;;27.10;64.20;;;;;;5012700;28;20187;-72
2023/08/19 02:29:21;;;;;;;5.63;5.13;;;27.10;64.20;;;;;;5013818;28;20172;-73
2023/08/19 02:31:47;;;;;;;5.03;4.63;;;27.10;64.20;;;;;;5013775;28;20203;-72
2023/08/19 02:34:12;;;;;;;4.77;4.30;;;27.10;64.10;;;;;;5012433;28;20211;-73
2023/08/19 02:36:38;;;;;;;5.60;5.10;;;27.10;64.10;;;;;;5013664;28;20204;-72
2023/08/19 02:39:04;;;;;;;5.70;5.13;;;27.10;64.10;;;;;;5013726;28;20255;-73
2023/08/19 02:41:29;;;;;;;4.93;4.50;;;27.10;64.10;;;;;;5013512;28;20196;-72
2023/08/19 02:43:55;;;;;;;5.67;5.17;;;27.10;64.10;;;;;;5013588;28;20183;-72
2023/08/19 02:46:21;;;;;;;5.07;4.57;;;27.10;64.10;;;;;;5013481;28;20577;-72
2023/08/19 02:48:47;;;;;;;4.87;4.47;;;27.10;65.00;;;;;;5013544;28;20555;-73
2023/08/19 02:51:12;;;;;;;4.90;4.50;;;27.10;64.10;;;;;;5013357;28;20568;-72
2023/08/19 02:53:38;;;;;;;4.93;4.53;;;27.10;64.10;;;;;;5013418;28;20188;-72
2023/08/19 02:56:06;;;;;;;5.63;5.23;;;27.10;64.10;;;;;;5013229;28;20211;-72
2023/08/19 02:58:32;;;;;;;5.30;4.90;;;27.10;64.10;;;;;;5013582;28;20596;-72
2023/08/19 03:00:58;;;;;;;7.07;5.57;;;27.10;64.10;;;;;;5013065;28;20458;-73
2023/08/19 03:03:24;;;;;;;5.23;4.83;;;27.10;64.10;;;;;;5013257;28;20538;-73
2023/08/19 03:05:49;;;;;;;5.43;5.00;;;27.10;64.10;;;;;;5013175;28;20181;-72
2023/08/19 03:08:15;;;;;;;4.50;4.10;;;27.10;64.10;;;;;;5013142;28;20638;-72
2023/08/19 03:10:41;;;;;;;4.87;4.47;;;27.10;64.10;;;;;;5012009;28;20219;-73
2023/08/19 03:13:08;;;;;;;4.83;4.43;;;27.10;64.10;;;;;;5013043;28;20173;-73
2023/08/19 03:15:36;;;;;;;4.83;4.43;;;27.10;64.10;;;;;;5012961;28;20558;-72
2023/08/19 03:18:02;;;;;;;4.60;4.20;;;27.10;64.20;;;;;;5010959;28;20519;-73
2023/08/19 03:20:28;;;;;;;5.13;4.73;;;27.10;64.10;;;;;;5012924;28;20514;-72
2023/08/19 03:22:53;;;;;;;4.53;4.23;;;27.10;64.10;;;;;;5012987;28;20653;-72
2023/08/19 03:25:19;;;;;;;5.00;4.60;;;27.10;64.10;;;;;;5011831;28;20180;-73
2023/08/19 03:27:44;;;;;;;5.00;4.60;;;27.10;64.10;;;;;;5012819;28;20172;-73
2023/08/19 03:30:10;;;;;;;4.93;4.63;;;27.10;64.90;;;;;;5012685;28;20196;-72
2023/08/19 03:32:36;;;;;;;4.77;4.37;;;27.10;64.10;;;;;;5011378;28;20207;-73
2023/08/19 03:35:02;;;;;;;5.37;4.87;;;27.10;64.10;;;;;;5012623;28;20419;-73
2023/08/19 03:37:28;;;;;;;4.80;4.40;;;27.10;64.10;;;;;;5012719;28;20211;-72
2023/08/19 03:39:54;;;;;;;4.70;4.30;;;27.10;64.10;;;;;;5012517;28;20467;-72
2023/08/19 03:42:19;;;;;;;4.77;4.37;;;27.10;64.10;;;;;;5012552;28;20188;-73
2023/08/19 03:44:45;;;;;;;4.83;4.43;;;27.10;64.20;;;;;;5012529;28;20176;-72
2023/08/19 03:47:11;;;;;;;4.90;4.50;;;27.10;64.10;;;;;;5012475;28;20646;-73
2023/08/19 03:49:37;;;;;;;5.10;4.60;;;27.10;64.10;;;;;;5012356;28;20188;-72
2023/08/19 03:52:05;;;;;;;4.80;4.40;;;27.10;64.10;;;;;;5012461;28;20419;-72
2023/08/19 03:54:30;;;;;;;4.50;4.20;;;27.10;64.10;;;;;;5012378;28;20215;-72
2023/08/19 03:56:56;;;;;;;4.80;4.37;;;27.10;64.10;;;;;;5011025;28;20552;-72
2023/08/19 03:59:22;;;;;;;4.47;4.17;;;27.10;64.10;;;;;;5012306;28;20653;-73
2023/08/19 04:01:47;;;;;;;4.47;4.17;;;27.10;64.10;;;;;;5012128;28;20215;-73
2023/08/19 04:04:13;;;;;;;4.60;4.20;;;27.10;64.10;;;;;;5012255;28;20271;-73
2023/08/19 04:06:38;;;;;;;4.70;4.30;;;27.10;64.20;;;;;;5012299;28;20551;-73
2023/08/19 04:09:04;;;;;;;4.43;4.13;;;27.10;64.10;;;;;;5012255;28;20211;-72
2023/08/19 04:11:30;;;;;;;4.10;3.80;;;27.10;64.10;;;;;;5012162;28;20211;-73
2023/08/19 04:13:56;;;;;;;4.67;4.37;;;27.10;64.10;;;;;;5012210;28;20419;-73
2023/08/19 04:16:23;;;;;;;4.60;4.30;;;27.10;64.10;;;;;;5012070;28;20200;-73
2023/08/19 04:18:49;;;;;;;4.57;4.17;;;27.10;64.10;;;;;;5012173;28;20582;-73
2023/08/19 04:21:15;;;;;;;4.20;3.90;;;27.10;64.10;;;;;;5010806;28;20485;-73
2023/08/19 04:23:40;;;;;;;4.23;3.93;;;27.10;64.10;;;;;;5012129;28;20712;-72
2023/08/19 04:26:06;;;;;;;4.90;4.50;;;27.10;64.10;;;;;;5012134;28;20215;-73
2023/08/19 04:28:32;;;;;;;4.50;4.10;;;27.10;64.10;;;;;;5012103;28;20279;-73
2023/08/19 04:31:08;;;;;;;4.73;4.33;;;27.10;64.10;;;;;;5014810;28;20270;-72
2023/08/19 04:33:35;;;;;;;4.83;4.43;;;27.10;64.10;;;;;;5015983;28;20200;-73
2023/08/19 04:36:01;;;;;;;4.30;4.00;;;27.10;64.10;;;;;;5015882;28;20454;-72
2023/08/19 04:38:27;;;;;;;4.97;4.57;;;27.10;64.10;;;;;;5014611;28;20442;-73
2023/08/19 04:40:53;;;;;;;4.60;4.30;;;27.10;64.90;;;;;;5015772;28;20864;-73
2023/08/19 04:43:19;;;;;;;4.70;4.30;;;27.10;64.10;;;;;;5015780;28;20180;-73
2023/08/19 04:45:45;;;;;;;4.40;4.10;;;27.10;64.10;;;;;;5015837;28;20216;-72
2023/08/19 04:48:10;;;;;;;4.23;3.93;;;27.10;64.10;;;;;;5015772;28;20421;-72
2023/08/19 04:50:36;;;;;;;4.60;4.20;;;27.10;64.10;;;;;;5015629;28;20644;-72
2023/08/19 04:53:02;;;;;;;4.70;4.30;;;27.10;64.10;;;;;;5015710;28;20225;-72
2023/08/19 04:55:28;;;;;;;5.30;4.90;;;27.10;64.10;;;;;;5015553;28;20680;-73
2023/08/19 04:57:53;;;;;;;4.70;4.40;;;27.10;64.90;;;;;;5014266;28;20419;-72
2023/08/19 05:00:19;;;;;;;4.67;4.30;;;27.10;64.10;;;;;;5014016;28;20275;-72
2023/08/19 05:02:45;;;;;;;4.80;4.40;;;27.10;64.10;;;;;;5014234;28;20293;-72
2023/08/19 05:05:10;;;;;;;4.27;3.90;;;27.10;64.10;;;;;;5015389;28;20641;-72
2023/08/19 05:07:36;;;;;;;4.97;4.57;;;27.10;64.10;;;;;;5015395;28;20195;-73
2023/08/19 05:10:02;;;;;;;4.53;4.13;;;27.10;64.10;;;;;;5014186;28;20571;-73
2023/08/19 05:12:28;;;;;;;4.60;4.30;;;27.10;64.10;;;;;;5013995;28;20235;-72
2023/08/19 05:14:53;;;;;;;4.30;4.00;;;27.10;64.10;;;;;;5015165;28;20426;-72
2023/08/19 05:17:19;;;;;;;4.57;4.27;;;27.10;64.10;;;;;;5013884;28;20640;-73
2023/08/19 05:19:45;;;;;;;4.53;4.13;;;27.10;64.10;;;;;;5015385;28;20180;-72
2023/08/19 05:22:11;;;;;;;5.10;4.70;;;27.10;64.10;;;;;;5015091;28;20211;-73
2023/08/19 05:24:36;;;;;;;4.60;4.20;;;27.10;64.00;;;;;;5013749;28;20466;-73
2023/08/19 05:27:02;;;;;;;4.43;4.13;;;27.10;64.00;;;;;;5015061;28;20180;-73
2023/08/19 05:29:28;;;;;;;4.90;4.50;;;27.10;64.00;;;;;;5014981;28;20203;-72
2023/08/19 05:31:54;;;;;;;4.27;3.97;;;27.10;64.00;;;;;;5014807;28;20439;-72
2023/08/19 05:34:20;;;;;;;3.77;3.47;;;27.10;64.00;;;;;;5013575;28;20184;-73
2023/08/19 05:36:46;;;;;;;4.50;4.10;;;27.10;63.90;;;;;;5015074;28;21009;-72
2023/08/19 05:39:11;;;;;;;4.20;3.80;;;27.10;63.90;;;;;;5014751;28;20211;-72
2023/08/19 05:41:37;;;;;;;4.20;3.90;;;27.10;63.90;;;;;;5013975;28;20203;-72
2023/08/19 05:44:03;;;;;;;4.17;3.87;;;27.10;64.00;;;;;;5014690;28;20259;-72
2023/08/19 05:46:29;;;;;;;4.97;4.47;;;27.10;63.90;;;;;;5014667;28;20169;-72
2023/08/19 05:48:54;;;;;;;4.70;4.30;;;27.10;63.90;;;;;;5014595;28;20415;-72
2023/08/19 05:51:20;;;;;;;4.30;4.00;;;27.10;63.90;;;;;;5014829;28;20677;-72
2023/08/19 05:53:46;;;;;;;4.23;3.93;;;27.20;64.00;;;;;;5014524;28;20234;-72
2023/08/19 05:56:12;;;;;;;5.30;4.87;;;27.10;63.90;;;;;;5014371;28;20207;-73
2023/08/19 05:58:38;;;;;;;4.20;3.90;;;27.20;64.00;;;;;;5014422;28;20172;-72
2023/08/19 06:01:06;;;;;;;3.93;3.63;;;27.10;63.90;;;;;;5014167;28;20454;-72
2023/08/19 06:03:32;;;;;;;4.20;3.90;;;27.20;64.10;;;;;;5014654;28;20208;-73
2023/08/19 06:06:05;;;;;;;4.87;4.47;;;27.20;64.10;;;;;;5014246;28;20447;-73
2023/08/19 06:08:31;;;;;;;4.17;3.87;;;27.20;64.00;;;;;;5013027;28;20172;-73
2023/08/19 06:11:00;;;;;;;4.50;4.10;;;27.20;64.00;;;;;;5014109;28;20821;-73
2023/08/19 06:13:26;;;;;;;4.27;3.97;;;27.20;64.10;;;;;;5014127;28;20412;-72
2023/08/19 06:15:51;;;;;;;4.80;3.90;;;27.20;64.00;;;;;;5014021;28;20450;-73
2023/08/19 06:18:17;;;;;;;4.20;3.90;;;27.20;64.00;;;;;;5014101;28;20184;-72
2023/08/19 06:20:42;;;;;;;4.93;4.53;;;27.20;64.00;;;;;;5013901;28;20288;-72
2023/08/19 06:23:08;;;;;;;4.57;4.10;;;27.20;64.10;;;;;;5014006;28;20173;-73
2023/08/19 06:25:33;;;;;;;5.17;4.27;;;27.20;64.10;;;;;;5013956;28;20707;-73
2023/08/19 06:27:59;;;;;;;4.73;4.43;;;27.20;64.10;;;;;;5012643;28;20180;-72
2023/08/19 06:30:24;;;;;;;4.33;4.03;;;27.20;64.10;;;;;;5013753;28;20242;-72
2023/08/19 06:32:50;;;;;;;4.43;4.13;;;27.20;64.10;;;;;;5012507;28;20645;-73
2023/08/19 06:35:17;;;;;;;4.20;3.90;;;27.20;64.10;;;;;;5013639;28;20203;-72
2023/08/19 06:37:49;;;;;;;4.23;3.87;;;27.20;64.10;;;;;;5013724;28;20634;-73
2023/08/19 06:40:18;;;;;;;4.03;3.73;;;27.20;64.10;;;;;;5013612;28;20442;-71
2023/08/19 06:42:45;;;;;;;4.10;3.80;;;27.20;64.10;;;;;;5013874;28;20423;-72
2023/08/19 06:45:14;;;;;;;4.03;3.73;;;27.20;64.20;;;;;;5013509;28;20399;-72
2023/08/19 06:47:42;;;;;;;4.10;3.80;;;27.20;64.10;;;;;;5013530;28;20439;-73
2023/08/19 06:50:08;;;;;;;3.90;3.60;;;27.20;64.10;;;;;;5013683;28;20439;-73
2023/08/19 06:52:38;;;;;;;3.90;3.60;;;27.20;64.20;;;;;;5015270;28;20559;-73
2023/08/19 06:55:04;;;;;;;3.97;3.67;;;27.20;64.20;;;;;;5014325;28;20503;-73
2023/08/19 06:57:35;;;;;;;4.40;4.10;;;27.20;64.20;;;;;;5013963;28;20776;-73
2023/08/19 07:00:09;;;;;;;4.57;3.70;;;27.20;64.20;;;;;;5013793;28;20814;-73
2023/08/19 07:02:38;;;;;;;4.10;3.77;;;27.20;64.20;;;;;;5014759;28;20415;-72
2023/08/19 07:05:16;;;;;;;4.10;3.70;;;27.20;64.20;;;;;;5014582;28;20421;-72
2023/08/19 07:07:46;;;;;;;3.63;3.33;;;27.20;64.20;;;;;;5012434;28;20454;-73
2023/08/19 07:10:15;;;;;;;3.93;3.63;;;27.20;64.20;;;;;;5013674;28;20434;-73
2023/08/19 07:12:41;;;;;;;3.83;3.53;;;27.20;64.30;;;;;;5014620;28;20788;-73
2023/08/19 07:15:11;;;;;;;4.30;3.90;;;27.20;64.30;;;;;;5014163;28;20889;-72
2023/08/19 07:17:47;;;;;;;4.40;4.00;;;27.20;64.30;;;;;;5014211;28;20761;-72
2023/08/19 07:20:20;;;;;;;4.20;3.90;;;27.20;64.30;;;;;;5012338;28;20522;-73
2023/08/19 07:22:51;;;;;;;3.77;3.47;;;27.20;64.30;;;;;;5013909;28;20419;-72
2023/08/19 07:25:18;;;;;;;4.00;3.70;;;27.20;64.40;;;;;;5013166;28;20411;-73
2023/08/19 07:27:44;;;;;;;4.10;3.80;;;27.20;64.40;;;;;;5013218;28;20412;-72
2023/08/19 07:30:11;;;;;;;4.10;3.80;;;27.20;64.40;;;;;;5012687;28;20471;-73
2023/08/19 07:32:38;;;;;;;4.00;3.70;;;27.20;64.40;;;;;;5013612;28;20919;-73
2023/08/19 07:35:05;;;;;;;4.57;4.13;;;27.20;64.40;;;;;;5013026;28;20412;-73
2023/08/19 07:37:34;;;;;;;4.10;3.80;;;27.20;64.50;;;;;;5013225;28;20784;-72
2023/08/19 07:39:59;;;;;;;3.97;3.67;;;27.20;64.40;;;;;;5012980;28;20905;-73
2023/08/19 07:42:27;;;;;;;4.43;4.13;;;27.20;64.50;;;;;;5012809;28;20411;-73
2023/08/19 07:44:52;;;;;;;4.27;3.97;;;27.20;64.60;;;;;;5012844;28;20165;-73
2023/08/19 07:47:18;;;;;;;3.97;3.67;;;27.20;64.50;;;;;;5012897;28;20842;-73
2023/08/19 07:49:44;;;;;;;4.53;4.13;;;27.20;64.50;;;;;;5011580;28;20172;-73
2023/08/19 07:52:09;;;;;;;3.87;3.57;;;27.20;64.50;;;;;;5011502;28;20184;-73
2023/08/19 07:54:35;;;;;;;3.93;3.63;;;27.20;64.50;;;;;;5012841;28;20210;-73
2023/08/19 07:57:01;;;;;;;4.33;4.03;;;27.20;64.50;;;;;;5012372;28;20192;-73
2023/08/19 07:59:26;;;;;;;3.73;3.43;;;27.20;64.50;;;;;;5012548;28;20723;-73
2023/08/19 08:01:54;;;;;;;3.90;3.60;;;27.30;64.60;;;;;;5012578;28;20307;-72
2023/08/19 08:04:21;;;;;;;3.77;3.47;;;27.20;64.60;;;;;;5012108;28;20175;-73
2023/08/19 08:06:50;;;;;;;4.23;3.83;;;27.30;64.70;;;;;;5012568;28;20916;-73
2023/08/19 08:09:15;;;;;;;4.00;3.70;;;27.20;64.50;;;;;;5013070;28;20411;-73
2023/08/19 08:11:44;;;;;;;4.07;3.73;;;27.20;64.50;;;;;;5011528;28;20461;-73
2023/08/19 08:14:09;;;;;;;4.07;3.50;;;27.30;64.60;;;;;;5012306;28;20176;-72
2023/08/19 08:16:35;;;;;;;4.20;3.90;;;27.20;64.50;;;;;;5010892;28;20537;-73
2023/08/19 08:19:01;;;;;;;4.03;3.73;;;27.30;64.60;;;;;;5012402;28;20168;-73
2023/08/19 08:21:26;;;;;;;4.57;4.27;;;27.30;64.60;;;;;;5012501;28;20230;-73
2023/08/19 08:23:54;;;;;;;4.33;3.93;;;27.30;64.60;;;;;;5012191;28;20172;-74
2023/08/19 08:26:22;;;;;;;5.17;4.77;;;27.20;64.40;;;;;;5011978;28;20638;-73
2023/08/19 08:28:49;;;;;;;4.40;4.00;;;27.30;64.50;;;;;;5011994;28;20422;-72
2023/08/19 08:31:16;;;;;;;5.33;4.90;;;27.30;64.60;;;;;;5011884;28;21051;-72
2023/08/19 08:33:41;;;;;;;5.07;4.67;;;27.30;64.60;;;;;;5011887;28;20496;-73
2023/08/19 08:36:08;;;;;;;4.70;4.40;;;27.30;64.50;;;;;;5011961;28;20967;-73
2023/08/19 08:38:36;;;;;;;5.90;5.30;;;27.30;64.50;;;;;;5010537;28;20188;-73
2023/08/19 08:41:04;;;;;;;5.03;4.63;;;27.30;64.50;;;;;;4997160;28;20527;-73
2023/08/19 08:43:33;;;;;;;4.93;4.53;;;27.30;64.50;;;;;;5001203;28;20420;-73
2023/08/19 08:46:00;;;;;;;5.10;4.70;;;27.30;64.50;;;;;;5001665;28;20446;-72
2023/08/19 08:48:31;;;;;;;5.13;4.73;;;27.20;64.60;;;;;;4999388;28;20481;-73
2023/08/19 08:50:58;;;;;;;5.20;4.80;;;27.30;64.50;;;;;;4997226;28;20730;-73
2023/08/19 08:53:28;;;;;;;5.60;5.10;;;27.30;64.50;;;;;;5000278;28;20428;-73
2023/08/19 08:55:55;;;;;;;5.20;4.80;;;27.30;64.50;;;;;;4999889;28;20510;-73
2023/08/19 08:58:21;;;;;;;5.03;4.63;;;27.30;64.60;;;;;;5002678;28;20428;-73
2023/08/19 09:00:49;;;;;;;5.20;4.80;;;27.30;64.50;;;;;;4998174;28;20530;-73
2023/08/19 09:03:19;;;;;;;4.80;4.50;;;27.30;64.50;;;;;;5000245;28;20408;-72
2023/08/19 09:05:50;;;;;;;5.27;4.77;;;27.30;64.60;;;;;;4992272;28;20412;-73
2023/08/19 09:08:19;;;;;;;5.13;4.73;;;27.30;64.50;;;;;;4992178;28;20425;-73
2023/08/19 09:10:47;;;;;;;5.00;4.57;;;27.30;64.50;;;;;;4992107;28;20435;-72
2023/08/19 09:13:18;;;;;;;5.77;5.37;;;27.30;64.50;;;;;;4990811;28;20995;-73
2023/08/19 09:15:43;;;;;;;5.47;4.97;;;27.30;65.10;;;;;;4992872;28;20458;-72
2023/08/19 09:18:09;;;;;;;5.30;4.60;;;27.30;64.50;;;;;;4995635;28;20420;-71
2023/08/19 09:20:37;;;;;;;5.43;4.93;;;27.30;64.50;;;;;;4995745;28;20280;-72
2023/08/19 09:23:09;;;;;;;5.10;4.70;;;27.30;64.50;;;;;;4995583;28;20408;-73
2023/08/19 09:25:37;;;;;;;4.97;4.57;;;27.30;64.40;;;;;;4995614;28;20412;-72
2023/08/19 09:28:07;;;;;;;5.20;4.80;;;27.30;64.50;;;;;;4994178;28;20518;-72
2023/08/19 09:30:33;;;;;;;5.23;4.83;;;27.30;64.40;;;;;;4994078;28;20447;-73
2023/08/19 09:33:00;;;;;;;5.40;5.00;;;27.30;64.40;;;;;;4995394;28;20420;-72
2023/08/19 09:35:37;;;;;;;5.53;5.13;;;27.30;64.40;;;;;;4997378;28;20458;-73
2023/08/19 09:38:03;;;;;;;7.53;4.30;;;27.40;64.50;;;;;;5003898;28;20470;-72
2023/08/19 09:40:32;;;;;;;5.27;4.87;;;27.30;64.40;;;;;;5016341;23;20498;-73
2023/08/19 09:42:58;;;;;;;5.60;5.17;;;27.30;64.40;;;;;;5014026;28;20604;-73
2023/08/19 09:45:26;;;;;;;4.63;4.23;;;27.30;64.40;;;;;;5013642;28;20415;-72
2023/08/19 09:47:53;;;;;;;5.17;4.77;;;27.30;64.40;;;;;;5013685;28;20412;-73
2023/08/19 09:50:21;;;;;;;4.70;4.30;;;27.40;64.50;;;;;;5013494;28;20477;-73
2023/08/19 09:52:54;;;;;;;4.67;4.27;;;27.40;64.50;;;;;;4996878;28;20427;-73
2023/08/19 09:55:24;;;;;;;5.00;4.60;;;27.40;64.60;;;;;;4996775;28;21006;-72
2023/08/19 09:57:50;;;;;;;6.00;5.50;;;27.40;64.50;;;;;;4997134;28;20910;-73
2023/08/19 10:00:15;;;;;;;5.60;5.20;;;27.40;64.50;;;;;;4996489;28;20431;-73
2023/08/19 10:02:42;;;;;;;6.00;5.50;;;27.40;64.50;;;;;;4996382;28;20180;-73
2023/08/19 10:05:07;;;;;;;6.53;5.40;;;27.40;64.50;;;;;;4996569;28;20180;-73
2023/08/19 10:07:34;;;;;;;5.17;4.77;;;27.40;64.60;;;;;;5013957;28;20783;-72
2023/08/19 10:10:03;;;;;;;5.90;5.00;;;27.40;64.50;;;;;;5014007;28;20196;-72
2023/08/19 10:12:33;;;;;;;5.50;5.00;;;27.40;64.50;;;;;;5013954;28;20414;-72
2023/08/19 10:15:00;;;;;;;6.13;5.40;;;27.40;64.50;;;;;;5008832;28;20408;-71
2023/08/19 10:17:28;;;;;;;5.70;4.87;;;27.40;64.50;;;;;;4996090;28;20451;-73
2023/08/19 10:20:02;;;;;;;6.20;5.60;;;27.30;64.40;;;;;;4996610;28;20440;-73
2023/08/19 10:22:31;;;;;;;5.77;5.27;;;27.40;64.50;;;;;;4996399;28;20399;-73
2023/08/19 10:24:58;;;;;;;8.53;5.10;;;27.40;64.50;;;;;;5014579;28;20482;-72
2023/08/19 10:27:24;;;;;;;5.40;4.90;;;27.40;64.50;;;;;;4995603;28;20460;-72
2023/08/19 10:29:56;;;;;;;5.50;5.10;;;27.40;64.50;;;;;;5013886;28;20912;-73
2023/08/19 10:32:32;;;;;;;5.53;5.10;;;27.40;64.60;;;;;;5014170;28;20641;-72
2023/08/19 10:35:09;;;;;;;6.10;5.60;;;27.40;64.50;;;;;;5014119;28;20457;-73
2023/08/19 10:37:56;;;;;;;5.57;5.07;;;27.40;64.60;;;;;;5013898;28;20384;-72
2023/08/19 10:40:25;;;;;;;5.70;5.20;;;27.40;64.50;;;;;;4995848;28;20467;-73
2023/08/19 10:42:58;;;;;;;5.27;4.77;;;27.40;64.50;;;;;;5012181;28;20445;-72
2023/08/19 10:45:33;;;;;;;6.20;5.70;;;27.40;64.50;;;;;;5013491;28;20486;-72
2023/08/19 10:47:58;;;;;;;5.10;4.63;;;27.40;64.50;;;;;;5013800;28;20426;-73
2023/08/19 10:50:34;;;;;;;5.07;4.57;;;27.40;64.50;;;;;;5013445;28;20886;-71
2023/08/19 10:53:01;;;;;;;5.27;4.87;;;27.40;64.50;;;;;;5013510;28;20164;-72
2023/08/19 10:55:27;;;;;;;5.70;5.30;;;27.40;64.50;;;;;;5013302;28;20447;-73
2023/08/19 10:57:56;;;;;;;5.10;4.60;;;27.40;64.50;;;;;;5013233;28;20419;-71
2023/08/19 11:00:23;;;;;;;5.70;5.20;;;27.40;64.50;;;;;;5013206;28;20180;-73
2023/08/19 11:02:49;;;;;;;5.13;4.63;;;27.40;64.50;;;;;;5013267;28;20415;-72
2023/08/19 11:05:26;;;;;;;5.30;4.80;;;27.40;64.40;;;;;;5013210;28;20422;-73
2023/08/19 11:07:52;;;;;;;5.70;4.90;;;27.40;64.40;;;;;;5012722;28;20238;-73
2023/08/19 11:10:19;;;;;;;5.00;4.57;;;27.40;64.50;;;;;;5013007;28;20427;-73
2023/08/19 11:12:48;;;;;;;5.43;4.93;;;27.40;64.40;;;;;;5012676;28;20494;-73
2023/08/19 11:15:23;;;;;;;5.43;5.00;;;27.40;64.40;;;;;;4995225;28;20420;-73
2023/08/19 11:17:49;;;;;;;5.13;4.70;;;27.40;64.40;;;;;;5012503;28;20399;-73
2023/08/19 11:20:15;;;;;;;5.27;4.77;;;27.40;64.40;;;;;;5011223;28;20435;-72
2023/08/19 11:22:46;;;;;;;5.33;4.40;;;27.40;64.40;;;;;;5011275;28;20207;-73
2023/08/19 11:25:13;;;;;;;4.60;4.23;;;27.40;64.40;;;;;;5011167;28;20415;-73
2023/08/19 11:27:39;;;;;;;5.63;5.13;;;27.40;64.40;;;;;;5011047;28;20407;-72
2023/08/19 11:30:12;;;;;;;5.67;5.17;;;27.40;64.30;;;;;;5010916;28;20427;-72
2023/08/19 11:32:38;;;;;;;4.93;4.53;;;27.40;64.30;;;;;;5011284;28;20415;-73
2023/08/19 11:35:04;;;;;;;5.40;4.80;;;27.40;64.30;;;;;;4994742;28;20422;-71
2023/08/19 11:37:29;;;;;;;5.23;4.73;;;27.40;64.30;;;;;;5012685;28;20952;-72
2023/08/19 11:39:55;;;;;;;4.90;4.50;;;27.40;64.40;;;;;;5011632;28;20431;-73
2023/08/19 11:42:21;;;;;;;5.07;4.67;;;27.40;64.30;;;;;;4994962;28;20176;-72
2023/08/19 11:44:46;;;;;;;5.43;4.70;;;27.40;64.30;;;;;;5012613;28;20169;-72
2023/08/19 11:47:14;;;;;;;4.80;4.40;;;27.40;64.30;;;;;;5012586;28;20262;-72
2023/08/19 11:49:42;;;;;;;5.63;5.13;;;27.40;64.30;;;;;;5012458;28;20254;-71
2023/08/19 11:52:08;;;;;;;5.40;4.90;;;27.40;64.30;;;;;;5012522;28;20407;-72
2023/08/19 11:54:34;;;;;;;4.73;4.33;;;27.40;64.30;;;;;;5012450;28;20753;-72
2023/08/19 11:57:02;;;;;;;4.60;4.30;;;27.40;64.20;;;;;;5012382;28;20200;-72
2023/08/19 11:59:30;;;;;;;5.30;4.80;;;27.40;64.20;;;;;;4994788;28;20215;-71
2023/08/19 12:01:57;;;;;;;4.87;4.50;;;27.40;64.30;;;;;;5012301;28;20437;-72
2023/08/19 12:04:23;;;;;;;4.10;3.80;;;27.40;64.30;;;;;;4994628;28;21023;-72
2023/08/19 12:06:49;;;;;;;5.07;4.60;;;27.40;64.20;;;;;;5012561;28;20419;-72
2023/08/19 12:09:18;;;;;;;4.83;4.33;;;27.40;64.20;;;;;;5012174;28;20415;-72
2023/08/19 12:11:47;;;;;;;4.40;4.10;;;27.50;64.30;;;;;;5012151;28;20430;-71
2023/08/19 12:14:13;;;;;;;4.83;4.50;;;27.40;64.20;;;;;;5012547;28;20905;-73
2023/08/19 12:16:38;;;;;;;5.00;4.50;;;27.50;64.30;;;;;;5012173;28;20450;-73
2023/08/19 12:19:04;;;;;;;4.43;4.03;;;27.50;64.40;;;;;;5012115;28;20535;-72
2023/08/19 12:21:30;;;;;;;5.27;4.83;;;27.40;64.20;;;;;;5012096;28;20199;-72
2023/08/19 12:23:55;;;;;;;5.17;4.77;;;27.50;64.30;;;;;;5012174;28;20172;-73
2023/08/19 12:26:21;;;;;;;5.30;4.90;;;27.40;64.20;;;;;;4994388;28;20542;-73
2023/08/19 12:28:47;;;;;;;4.97;4.57;;;27.40;64.20;;;;;;5012121;28;20291;-72
2023/08/19 12:31:13;;;;;;;5.20;4.80;;;27.50;64.20;;;;;;5012014;28;20195;-71
2023/08/19 12:33:42;;;;;;;3.90;3.60;;;27.50;64.30;;;;;;4994401;28;20415;-72
2023/08/19 12:36:08;;;;;;;4.90;4.50;;;27.50;64.20;;;;;;5011928;28;20200;-73
2023/08/19 12:38:33;;;;;;;4.80;4.40;;;27.50;64.30;;;;;;5011982;28;20419;-71
2023/08/19 12:40:59;;;;;;;5.13;4.50;;;27.40;64.20;;;;;;5011830;28;20455;-72
2023/08/19 12:43:25;;;;;;;3.90;3.60;;;27.50;64.30;;;;;;5011929;28;20172;-72
2023/08/19 12:45:50;;;;;;;4.37;4.07;;;27.50;64.30;;;;;;5011922;28;20283;-72
2023/08/19 12:48:16;;;;;;;4.60;4.20;;;27.50;64.20;;;;;;5011863;28;20168;-71